sensor_id;sensor_type;location;lat;lon;timestamp;P1;durP1;ratioP1;P2;durP2;ratioP2
43413;SDS011;29013;49.676;8.606;2022-09-27T00:03:03;0.81;;;0.68;;
43413;SDS011;29013;49.676;8.606;2022-09-27T00:08:28;0.89;;;0.82;;
43413;SDS011;29013;49.676;8.606;2022-09-27T00:13:50;0.76;;;0.66;;
43413;SDS011;29013;49.676;8.606;2022-09-27T00:19:12;2.39;;;0.71;;
43413;SDS011;29013;49.676;8.606;2022-09-27T00:24:36;2.35;;;0.7;;
43413;SDS011;29013;49.676;8.606;2022-09-27T00:30:05;0.77;;;0.78;;
43413;SDS011;29013;49.676;8.606;2022-09-27T00:35:29;0.69;;;0.6;;
43413;SDS011;29013;49.676;8.606;2022-09-27T00:40:55;1.18;;;0.78;;
43413;SDS011;29013;49.676;8.606;2022-09-27T00:46:24;1.48;;;1.06;;
43413;SDS011;29013;49.676;8.606;2022-09-27T00:51:52;1.4;;;1.06;;
43413;SDS011;29013;49.676;8.606;2022-09-27T00:57:19;0.94;;;0.77;;
43413;SDS011;29013;49.676;8.606;2022-09-27T01:02:47;2.12;;;0.89;;
43413;SDS011;29013;49.676;8.606;2022-09-27T01:08:12;0.65;;;0.68;;
43413;SDS011;29013;49.676;8.606;2022-09-27T01:13:40;0.77;;;0.77;;
43413;SDS011;29013;49.676;8.606;2022-09-27T01:19:05;1.66;;;0.97;;
43413;SDS011;29013;49.676;8.606;2022-09-27T01:30:24;1.76;;;1.01;;
43413;SDS011;29013;49.676;8.606;2022-09-27T01:35:48;1.02;;;0.95;;
43413;SDS011;29013;49.676;8.606;2022-09-27T01:41:14;1.73;;;1.1;;
43413;SDS011;29013;49.676;8.606;2022-09-27T01:46:40;1.35;;;1.07;;
43413;SDS011;29013;49.676;8.606;2022-09-27T01:52:07;2.29;;;1.31;;
43413;SDS011;29013;49.676;8.606;2022-09-27T01:57:34;1.54;;;1.2;;
43413;SDS011;29013;49.676;8.606;2022-09-27T02:03:03;2.86;;;1.75;;
43413;SDS011;29013;49.676;8.606;2022-09-27T02:08:25;2.64;;;1.45;;
43413;SDS011;29013;49.676;8.606;2022-09-27T02:13:51;1.81;;;1.35;;
43413;SDS011;29013;49.676;8.606;2022-09-27T02:19:16;2.37;;;1.48;;
43413;SDS011;29013;49.676;8.606;2022-09-27T02:24:41;1.37;;;1.28;;
43413;SDS011;29013;49.676;8.606;2022-09-27T02:30:09;1.8;;;1.47;;
43413;SDS011;29013;49.676;8.606;2022-09-27T02:35:34;1.89;;;1.53;;
43413;SDS011;29013;49.676;8.606;2022-09-27T02:40:56;2.0;;;1.37;;
43413;SDS011;29013;49.676;8.606;2022-09-27T02:52:11;3.65;;;1.28;;
43413;SDS011;29013;49.676;8.606;2022-09-27T02:57:39;3.2;;;1.38;;
43413;SDS011;29013;49.676;8.606;2022-09-27T03:03:05;2.52;;;0.99;;
43413;SDS011;29013;49.676;8.606;2022-09-27T03:08:31;5.56;;;1.22;;
43413;SDS011;29013;49.676;8.606;2022-09-27T03:13:58;2.78;;;0.95;;
43413;SDS011;29013;49.676;8.606;2022-09-27T03:19:24;1.62;;;0.82;;
43413;SDS011;29013;49.676;8.606;2022-09-27T03:24:50;1.86;;;1.04;;
43413;SDS011;29013;49.676;8.606;2022-09-27T03:30:18;1.38;;;1.08;;
43413;SDS011;29013;49.676;8.606;2022-09-27T03:35:46;1.23;;;0.75;;
43413;SDS011;29013;49.676;8.606;2022-09-27T03:41:10;1.48;;;0.78;;
43413;SDS011;29013;49.676;8.606;2022-09-27T03:46:34;1.39;;;0.83;;
43413;SDS011;29013;49.676;8.606;2022-09-27T03:52:00;2.06;;;0.81;;
43413;SDS011;29013;49.676;8.606;2022-09-27T03:57:25;1.01;;;0.77;;
43413;SDS011;29013;49.676;8.606;2022-09-27T04:02:52;1.65;;;0.59;;
43413;SDS011;29013;49.676;8.606;2022-09-27T04:08:17;0.46;;;0.4;;
43413;SDS011;29013;49.676;8.606;2022-09-27T04:13:41;2.01;;;0.37;;
43413;SDS011;29013;49.676;8.606;2022-09-27T04:19:06;0.78;;;0.55;;
43413;SDS011;29013;49.676;8.606;2022-09-27T04:24:33;0.62;;;0.45;;
43413;SDS011;29013;49.676;8.606;2022-09-27T04:29:57;0.86;;;0.36;;
43413;SDS011;29013;49.676;8.606;2022-09-27T04:35:21;4.22;;;2.47;;
43413;SDS011;29013;49.676;8.606;2022-09-27T04:40:48;0.62;;;0.53;;
43413;SDS011;29013;49.676;8.606;2022-09-27T04:46:14;0.58;;;0.48;;
43413;SDS011;29013;49.676;8.606;2022-09-27T04:51:42;0.78;;;0.38;;
43413;SDS011;29013;49.676;8.606;2022-09-27T04:57:03;2.65;;;0.38;;
43413;SDS011;29013;49.676;8.606;2022-09-27T05:02:29;1.03;;;0.36;;
43413;SDS011;29013;49.676;8.606;2022-09-27T05:07:55;0.37;;;0.28;;
43413;SDS011;29013;49.676;8.606;2022-09-27T05:13:22;0.49;;;0.34;;
43413;SDS011;29013;49.676;8.606;2022-09-27T05:18:47;1.33;;;0.41;;
43413;SDS011;29013;49.676;8.606;2022-09-27T05:24:14;0.93;;;0.52;;
43413;SDS011;29013;49.676;8.606;2022-09-27T05:29:42;1.33;;;0.63;;
43413;SDS011;29013;49.676;8.606;2022-09-27T05:35:07;2.23;;;0.56;;
43413;SDS011;29013;49.676;8.606;2022-09-27T05:40:32;1.17;;;0.47;;
43413;SDS011;29013;49.676;8.606;2022-09-27T05:45:57;1.09;;;0.61;;
43413;SDS011;29013;49.676;8.606;2022-09-27T05:51:22;0.53;;;0.49;;
43413;SDS011;29013;49.676;8.606;2022-09-27T05:56:49;1.24;;;0.5;;
43413;SDS011;29013;49.676;8.606;2022-09-27T06:02:12;1.8;;;0.43;;
43413;SDS011;29013;49.676;8.606;2022-09-27T06:07:36;1.29;;;0.55;;
43413;SDS011;29013;49.676;8.606;2022-09-27T06:13:02;0.95;;;0.44;;
43413;SDS011;29013;49.676;8.606;2022-09-27T06:18:27;0.57;;;0.39;;
43413;SDS011;29013;49.676;8.606;2022-09-27T06:23:51;1.02;;;0.37;;
43413;SDS011;29013;49.676;8.606;2022-09-27T06:29:15;0.55;;;0.38;;
43413;SDS011;29013;49.676;8.606;2022-09-27T06:34:41;1.18;;;0.42;;
43413;SDS011;29013;49.676;8.606;2022-09-27T06:40:09;0.34;;;0.37;;
43413;SDS011;29013;49.676;8.606;2022-09-27T06:45:31;1.06;;;0.43;;
43413;SDS011;29013;49.676;8.606;2022-09-27T06:50:52;1.51;;;0.38;;
43413;SDS011;29013;49.676;8.606;2022-09-27T06:56:20;1.15;;;0.42;;
43413;SDS011;29013;49.676;8.606;2022-09-27T07:01:47;2.26;;;0.5;;
43413;SDS011;29013;49.676;8.606;2022-09-27T07:07:11;2.11;;;0.51;;
43413;SDS011;29013;49.676;8.606;2022-09-27T07:12:35;0.87;;;0.5;;
43413;SDS011;29013;49.676;8.606;2022-09-27T07:18:00;0.6;;;0.4;;
43413;SDS011;29013;49.676;8.606;2022-09-27T07:23:27;0.74;;;0.38;;
43413;SDS011;29013;49.676;8.606;2022-09-27T07:28:50;0.67;;;0.4;;
43413;SDS011;29013;49.676;8.606;2022-09-27T07:34:17;0.83;;;0.38;;
43413;SDS011;29013;49.676;8.606;2022-09-27T07:39:42;1.05;;;0.46;;
43413;SDS011;29013;49.676;8.606;2022-09-27T07:45:08;1.8;;;0.35;;
43413;SDS011;29013;49.676;8.606;2022-09-27T07:50:29;0.52;;;0.43;;
43413;SDS011;29013;49.676;8.606;2022-09-27T07:55:54;1.14;;;0.3;;
43413;SDS011;29013;49.676;8.606;2022-09-27T08:01:19;0.44;;;0.2;;
43413;SDS011;29013;49.676;8.606;2022-09-27T08:06:43;0.46;;;0.27;;
43413;SDS011;29013;49.676;8.606;2022-09-27T08:12:09;0.26;;;0.2;;
43413;SDS011;29013;49.676;8.606;2022-09-27T08:17:34;0.42;;;0.22;;
43413;SDS011;29013;49.676;8.606;2022-09-27T08:22:58;0.34;;;0.27;;
43413;SDS011;29013;49.676;8.606;2022-09-27T08:28:23;1.4;;;0.35;;
43413;SDS011;29013;49.676;8.606;2022-09-27T08:33:49;0.58;;;0.38;;
43413;SDS011;29013;49.676;8.606;2022-09-27T08:39:12;0.62;;;0.47;;
43413;SDS011;29013;49.676;8.606;2022-09-27T08:44:39;0.92;;;0.48;;
43413;SDS011;29013;49.676;8.606;2022-09-27T08:50:07;0.53;;;0.38;;
43413;SDS011;29013;49.676;8.606;2022-09-27T08:55:29;1.5;;;0.4;;
43413;SDS011;29013;49.676;8.606;2022-09-27T09:00:52;1.23;;;0.51;;
43413;SDS011;29013;49.676;8.606;2022-09-27T09:06:19;0.98;;;0.33;;
43413;SDS011;29013;49.676;8.606;2022-09-27T09:11:45;0.9;;;0.29;;
43413;SDS011;29013;49.676;8.606;2022-09-27T09:17:13;1.17;;;0.32;;
43413;SDS011;29013;49.676;8.606;2022-09-27T09:22:41;0.58;;;0.2;;
43413;SDS011;29013;49.676;8.606;2022-09-27T09:28:06;0.22;;;0.21;;
43413;SDS011;29013;49.676;8.606;2022-09-27T09:33:34;0.42;;;0.28;;
43413;SDS011;29013;49.676;8.606;2022-09-27T09:39:02;1.1;;;0.38;;
43413;SDS011;29013;49.676;8.606;2022-09-27T09:44:23;0.65;;;0.22;;
43413;SDS011;29013;49.676;8.606;2022-09-27T09:49:51;2.0;;;0.31;;
43413;SDS011;29013;49.676;8.606;2022-09-27T09:55:14;0.29;;;0.21;;
43413;SDS011;29013;49.676;8.606;2022-09-27T10:00:41;0.33;;;0.17;;
43413;SDS011;29013;49.676;8.606;2022-09-27T10:06:08;1.58;;;0.23;;
43413;SDS011;29013;49.676;8.606;2022-09-27T10:11:34;0.93;;;0.29;;
43413;SDS011;29013;49.676;8.606;2022-09-27T10:16:58;0.53;;;0.3;;
43413;SDS011;29013;49.676;8.606;2022-09-27T10:22:25;0.52;;;0.35;;
43413;SDS011;29013;49.676;8.606;2022-09-27T10:27:50;1.19;;;0.35;;
43413;SDS011;29013;49.676;8.606;2022-09-27T10:33:16;0.77;;;0.34;;
43413;SDS011;29013;49.676;8.606;2022-09-27T10:38:42;0.96;;;0.37;;
43413;SDS011;29013;49.676;8.606;2022-09-27T10:44:22;0.58;;;0.22;;
43413;SDS011;29013;49.676;8.606;2022-09-27T10:49:45;1.12;;;0.33;;
43413;SDS011;29013;49.676;8.606;2022-09-27T10:55:19;0.74;;;0.39;;
43413;SDS011;29013;49.676;8.606;2022-09-27T11:00:43;0.86;;;0.34;;
43413;SDS011;29013;49.676;8.606;2022-09-27T11:06:26;1.71;;;0.62;;
43413;SDS011;29013;49.676;8.606;2022-09-27T11:11:48;1.17;;;0.45;;
43413;SDS011;29013;49.676;8.606;2022-09-27T11:17:15;1.2;;;0.55;;
43413;SDS011;29013;49.676;8.606;2022-09-27T11:22:43;0.99;;;0.55;;
43413;SDS011;29013;49.676;8.606;2022-09-27T11:28:23;1.08;;;0.5;;
43413;SDS011;29013;49.676;8.606;2022-09-27T11:33:57;1.85;;;0.59;;
43413;SDS011;29013;49.676;8.606;2022-09-27T11:39:31;1.84;;;0.65;;
43413;SDS011;29013;49.676;8.606;2022-09-27T11:44:56;1.12;;;0.59;;
43413;SDS011;29013;49.676;8.606;2022-09-27T11:50:39;2.77;;;0.59;;
43413;SDS011;29013;49.676;8.606;2022-09-27T11:56:06;0.94;;;0.39;;
43413;SDS011;29013;49.676;8.606;2022-09-27T12:01:32;0.68;;;0.4;;
43413;SDS011;29013;49.676;8.606;2022-09-27T12:06:59;1.28;;;0.26;;
43413;SDS011;29013;49.676;8.606;2022-09-27T12:12:23;0.79;;;0.32;;
43413;SDS011;29013;49.676;8.606;2022-09-27T12:17:44;0.6;;;0.25;;
43413;SDS011;29013;49.676;8.606;2022-09-27T12:23:14;0.66;;;0.31;;
43413;SDS011;29013;49.676;8.606;2022-09-27T12:28:37;0.45;;;0.29;;
43413;SDS011;29013;49.676;8.606;2022-09-27T12:34:05;0.41;;;0.29;;
43413;SDS011;29013;49.676;8.606;2022-09-27T12:39:36;0.49;;;0.28;;
43413;SDS011;29013;49.676;8.606;2022-09-27T12:45:09;2.28;;;0.58;;
43413;SDS011;29013;49.676;8.606;2022-09-27T12:50:34;0.8;;;0.53;;
43413;SDS011;29013;49.676;8.606;2022-09-27T12:56:17;1.48;;;0.45;;
43413;SDS011;29013;49.676;8.606;2022-09-27T13:01:58;0.82;;;0.38;;
43413;SDS011;29013;49.676;8.606;2022-09-27T13:07:29;0.77;;;0.43;;
43413;SDS011;29013;49.676;8.606;2022-09-27T13:13:18;0.98;;;0.45;;
43413;SDS011;29013;49.676;8.606;2022-09-27T13:18:58;0.64;;;0.37;;
43413;SDS011;29013;49.676;8.606;2022-09-27T13:24:31;1.01;;;0.47;;
43413;SDS011;29013;49.676;8.606;2022-09-27T13:42:48;3.35;;;0.79;;
43413;SDS011;29013;49.676;8.606;2022-09-27T13:48:42;0.65;;;0.45;;
43413;SDS011;29013;49.676;8.606;2022-09-27T13:54:49;1.56;;;0.53;;
43413;SDS011;29013;49.676;8.606;2022-09-27T14:00:26;0.61;;;0.43;;
43413;SDS011;29013;49.676;8.606;2022-09-27T14:05:55;0.31;;;0.32;;
43413;SDS011;29013;49.676;8.606;2022-09-27T14:11:41;0.51;;;0.33;;
43413;SDS011;29013;49.676;8.606;2022-09-27T14:17:05;0.99;;;1.1;;
43413;SDS011;29013;49.676;8.606;2022-09-27T14:22:28;1.67;;;0.39;;
43413;SDS011;29013;49.676;8.606;2022-09-27T14:27:51;0.26;;;0.32;;
43413;SDS011;29013;49.676;8.606;2022-09-27T14:33:27;0.59;;;0.33;;
43413;SDS011;29013;49.676;8.606;2022-09-27T14:38:51;0.35;;;0.28;;
43413;SDS011;29013;49.676;8.606;2022-09-27T14:44:17;1.84;;;0.33;;
43413;SDS011;29013;49.676;8.606;2022-09-27T14:49:46;1.54;;;0.24;;
43413;SDS011;29013;49.676;8.606;2022-09-27T14:55:07;0.56;;;0.32;;
43413;SDS011;29013;49.676;8.606;2022-09-27T15:00:33;0.9;;;0.36;;
43413;SDS011;29013;49.676;8.606;2022-09-27T15:05:56;0.98;;;0.28;;
43413;SDS011;29013;49.676;8.606;2022-09-27T15:11:22;0.54;;;0.42;;
43413;SDS011;29013;49.676;8.606;2022-09-27T15:16:53;1.05;;;0.44;;
43413;SDS011;29013;49.676;8.606;2022-09-27T15:22:22;1.62;;;0.47;;
43413;SDS011;29013;49.676;8.606;2022-09-27T15:27:53;1.35;;;0.37;;
43413;SDS011;29013;49.676;8.606;2022-09-27T15:33:19;0.74;;;0.67;;
43413;SDS011;29013;49.676;8.606;2022-09-27T15:38:43;2.55;;;0.42;;
43413;SDS011;29013;49.676;8.606;2022-09-27T15:44:18;1.38;;;0.71;;
43413;SDS011;29013;49.676;8.606;2022-09-27T15:49:45;1.62;;;0.51;;
43413;SDS011;29013;49.676;8.606;2022-09-27T15:55:14;1.51;;;0.53;;
43413;SDS011;29013;49.676;8.606;2022-09-27T16:00:50;0.69;;;0.33;;
43413;SDS011;29013;49.676;8.606;2022-09-27T16:06:11;2.11;;;0.47;;
43413;SDS011;29013;49.676;8.606;2022-09-27T16:11:37;0.63;;;0.43;;
43413;SDS011;29013;49.676;8.606;2022-09-27T16:17:05;0.58;;;0.45;;
43413;SDS011;29013;49.676;8.606;2022-09-27T16:22:32;1.24;;;0.48;;
43413;SDS011;29013;49.676;8.606;2022-09-27T16:27:59;1.03;;;0.62;;
43413;SDS011;29013;49.676;8.606;2022-09-27T16:33:23;0.65;;;0.4;;
43413;SDS011;29013;49.676;8.606;2022-09-27T16:38:49;1.29;;;0.46;;
43413;SDS011;29013;49.676;8.606;2022-09-27T16:44:12;1.06;;;0.6;;
43413;SDS011;29013;49.676;8.606;2022-09-27T16:49:37;0.85;;;0.51;;
43413;SDS011;29013;49.676;8.606;2022-09-27T16:55:04;1.01;;;0.64;;
43413;SDS011;29013;49.676;8.606;2022-09-27T17:00:31;2.45;;;0.58;;
43413;SDS011;29013;49.676;8.606;2022-09-27T17:06:00;1.25;;;0.73;;
43413;SDS011;29013;49.676;8.606;2022-09-27T17:11:25;1.07;;;0.64;;
43413;SDS011;29013;49.676;8.606;2022-09-27T17:17:06;1.39;;;0.63;;
43413;SDS011;29013;49.676;8.606;2022-09-27T17:22:41;1.06;;;0.54;;
43413;SDS011;29013;49.676;8.606;2022-09-27T17:28:08;0.55;;;0.41;;
43413;SDS011;29013;49.676;8.606;2022-09-27T17:33:33;0.57;;;0.59;;
43413;SDS011;29013;49.676;8.606;2022-09-27T17:38:58;1.38;;;0.66;;
43413;SDS011;29013;49.676;8.606;2022-09-27T17:44:20;0.81;;;0.57;;
43413;SDS011;29013;49.676;8.606;2022-09-27T17:49:47;1.44;;;0.64;;
43413;SDS011;29013;49.676;8.606;2022-09-27T17:55:14;1.46;;;0.65;;
43413;SDS011;29013;49.676;8.606;2022-09-27T18:00:38;1.94;;;0.54;;
43413;SDS011;29013;49.676;8.606;2022-09-27T18:06:05;1.11;;;0.55;;
43413;SDS011;29013;49.676;8.606;2022-09-27T18:11:31;0.71;;;0.53;;
43413;SDS011;29013;49.676;8.606;2022-09-27T18:16:56;0.58;;;0.59;;
43413;SDS011;29013;49.676;8.606;2022-09-27T18:22:22;1.51;;;0.63;;
43413;SDS011;29013;49.676;8.606;2022-09-27T18:27:48;1.07;;;0.64;;
43413;SDS011;29013;49.676;8.606;2022-09-27T18:33:16;0.69;;;0.5;;
43413;SDS011;29013;49.676;8.606;2022-09-27T18:38:40;1.19;;;0.61;;
43413;SDS011;29013;49.676;8.606;2022-09-27T18:44:02;1.04;;;0.73;;
43413;SDS011;29013;49.676;8.606;2022-09-27T18:49:28;0.93;;;0.79;;
43413;SDS011;29013;49.676;8.606;2022-09-27T18:54:55;1.85;;;0.68;;
43413;SDS011;29013;49.676;8.606;2022-09-27T19:00:23;1.18;;;0.7;;
43413;SDS011;29013;49.676;8.606;2022-09-27T19:05:53;1.02;;;0.77;;
43413;SDS011;29013;49.676;8.606;2022-09-27T19:11:18;1.27;;;0.67;;
43413;SDS011;29013;49.676;8.606;2022-09-27T19:16:42;1.58;;;0.74;;
43413;SDS011;29013;49.676;8.606;2022-09-27T19:22:07;0.74;;;0.6;;
43413;SDS011;29013;49.676;8.606;2022-09-27T19:27:31;2.4;;;0.56;;
43413;SDS011;29013;49.676;8.606;2022-09-27T19:32:55;3.07;;;0.78;;
43413;SDS011;29013;49.676;8.606;2022-09-27T19:38:22;1.33;;;1.06;;
43413;SDS011;29013;49.676;8.606;2022-09-27T19:43:50;2.52;;;1.09;;
43413;SDS011;29013;49.676;8.606;2022-09-27T19:49:15;1.32;;;0.97;;
43413;SDS011;29013;49.676;8.606;2022-09-27T19:54:40;1.2;;;1.06;;
43413;SDS011;29013;49.676;8.606;2022-09-27T20:00:07;3.39;;;1.19;;
43413;SDS011;29013;49.676;8.606;2022-09-27T20:05:29;3.14;;;1.21;;
43413;SDS011;29013;49.676;8.606;2022-09-27T20:10:54;1.99;;;1.25;;
43413;SDS011;29013;49.676;8.606;2022-09-27T20:16:16;1.31;;;1.03;;
43413;SDS011;29013;49.676;8.606;2022-09-27T20:21:37;2.21;;;0.95;;
43413;SDS011;29013;49.676;8.606;2022-09-27T20:26:58;1.86;;;0.96;;
43413;SDS011;29013;49.676;8.606;2022-09-27T20:32:19;1.57;;;1.11;;
43413;SDS011;29013;49.676;8.606;2022-09-27T20:37:41;1.94;;;1.0;;
43413;SDS011;29013;49.676;8.606;2022-09-27T20:43:02;1.11;;;0.73;;
43413;SDS011;29013;49.676;8.606;2022-09-27T20:48:24;1.71;;;0.71;;
43413;SDS011;29013;49.676;8.606;2022-09-27T20:53:45;2.36;;;0.85;;
43413;SDS011;29013;49.676;8.606;2022-09-27T20:59:09;1.87;;;0.72;;
43413;SDS011;29013;49.676;8.606;2022-09-27T21:04:29;1.39;;;1.11;;
43413;SDS011;29013;49.676;8.606;2022-09-27T21:09:53;1.79;;;0.97;;
43413;SDS011;29013;49.676;8.606;2022-09-27T21:15:20;0.77;;;0.59;;
43413;SDS011;29013;49.676;8.606;2022-09-27T21:20:43;1.44;;;0.71;;
43413;SDS011;29013;49.676;8.606;2022-09-27T21:26:10;2.03;;;0.6;;
43413;SDS011;29013;49.676;8.606;2022-09-27T21:31:34;1.19;;;0.61;;
43413;SDS011;29013;49.676;8.606;2022-09-27T21:37:02;1.36;;;0.77;;
43413;SDS011;29013;49.676;8.606;2022-09-27T21:42:28;1.33;;;0.92;;
43413;SDS011;29013;49.676;8.606;2022-09-27T21:47:55;1.73;;;0.66;;
43413;SDS011;29013;49.676;8.606;2022-09-27T21:53:23;1.07;;;0.85;;
43413;SDS011;29013;49.676;8.606;2022-09-27T21:58:47;0.81;;;0.75;;
43413;SDS011;29013;49.676;8.606;2022-09-27T22:04:18;1.65;;;0.73;;
43413;SDS011;29013;49.676;8.606;2022-09-27T22:09:45;2.08;;;0.69;;
43413;SDS011;29013;49.676;8.606;2022-09-27T22:15:11;2.02;;;0.63;;
43413;SDS011;29013;49.676;8.606;2022-09-27T22:20:37;1.17;;;0.51;;
43413;SDS011;29013;49.676;8.606;2022-09-27T22:26:11;2.4;;;0.7;;
43413;SDS011;29013;49.676;8.606;2022-09-27T22:31:37;1.0;;;0.59;;
43413;SDS011;29013;49.676;8.606;2022-09-27T22:37:04;1.05;;;0.55;;
43413;SDS011;29013;49.676;8.606;2022-09-27T22:42:26;1.47;;;0.64;;
43413;SDS011;29013;49.676;8.606;2022-09-27T22:47:48;1.12;;;0.75;;
43413;SDS011;29013;49.676;8.606;2022-09-27T22:53:09;1.31;;;0.59;;
43413;SDS011;29013;49.676;8.606;2022-09-27T22:58:35;0.7;;;0.48;;
43413;SDS011;29013;49.676;8.606;2022-09-27T23:04:02;1.48;;;0.71;;
43413;SDS011;29013;49.676;8.606;2022-09-27T23:09:28;1.02;;;0.6;;
43413;SDS011;29013;49.676;8.606;2022-09-27T23:14:55;3.15;;;0.61;;
43413;SDS011;29013;49.676;8.606;2022-09-27T23:20:20;1.28;;;0.61;;
43413;SDS011;29013;49.676;8.606;2022-09-27T23:25:46;2.14;;;0.86;;
43413;SDS011;29013;49.676;8.606;2022-09-27T23:31:13;0.72;;;0.57;;
43413;SDS011;29013;49.676;8.606;2022-09-27T23:36:38;2.04;;;0.8;;
43413;SDS011;29013;49.676;8.606;2022-09-27T23:42:00;0.81;;;0.59;;
43413;SDS011;29013;49.676;8.606;2022-09-27T23:47:26;1.45;;;0.81;;
43413;SDS011;29013;49.676;8.606;2022-09-27T23:52:53;1.66;;;0.81;;
43413;SDS011;29013;49.676;8.606;2022-09-27T23:58:20;1.6;;;0.78;;
